sensor_id;sensor_type;location;lat;lon;timestamp;P1;durP1;ratioP1;P2;durP2;ratioP2
19617;SDS011;9956;51.006;13.670;2022-09-09T00:00:32;1.48;;;0.93;;
19617;SDS011;9956;51.006;13.670;2022-09-09T00:05:44;2.47;;;0.95;;
19617;SDS011;9956;51.006;13.670;2022-09-09T00:10:57;1.80;;;0.90;;
19617;SDS011;9956;51.006;13.670;2022-09-09T00:21:13;1.92;;;0.73;;
19617;SDS011;9956;51.006;13.670;2022-09-09T00:31:31;1.20;;;0.50;;
19617;SDS011;9956;51.006;13.670;2022-09-09T00:36:32;1.42;;;1.00;;
19617;SDS011;9956;51.006;13.670;2022-09-09T00:57:34;1.85;;;1.20;;
19617;SDS011;9956;51.006;13.670;2022-09-09T01:02:39;2.63;;;0.80;;
19617;SDS011;9956;51.006;13.670;2022-09-09T01:07:46;2.55;;;1.23;;
19617;SDS011;9956;51.006;13.670;2022-09-09T01:12:48;3.60;;;1.13;;
19617;SDS011;9956;51.006;13.670;2022-09-09T01:18:04;2.08;;;0.80;;
19617;SDS011;9956;51.006;13.670;2022-09-09T01:28:45;2.00;;;0.70;;
19617;SDS011;9956;51.006;13.670;2022-09-09T01:33:52;1.92;;;0.80;;
19617;SDS011;9956;51.006;13.670;2022-09-09T01:38:55;4.35;;;0.85;;
19617;SDS011;9956;51.006;13.670;2022-09-09T01:43:56;2.42;;;1.08;;
19617;SDS011;9956;51.006;13.670;2022-09-09T01:48:57;3.03;;;0.90;;
19617;SDS011;9956;51.006;13.670;2022-09-09T01:54:00;1.75;;;0.90;;
19617;SDS011;9956;51.006;13.670;2022-09-09T02:04:41;1.63;;;0.98;;
19617;SDS011;9956;51.006;13.670;2022-09-09T02:09:57;2.33;;;1.15;;
19617;SDS011;9956;51.006;13.670;2022-09-09T02:15:03;2.80;;;0.80;;
19617;SDS011;9956;51.006;13.670;2022-09-09T02:20:18;2.28;;;0.88;;
19617;SDS011;9956;51.006;13.670;2022-09-09T02:25:25;2.38;;;0.82;;
19617;SDS011;9956;51.006;13.670;2022-09-09T02:30:30;4.97;;;0.98;;
19617;SDS011;9956;51.006;13.670;2022-09-09T02:35:33;1.38;;;0.80;;
19617;SDS011;9956;51.006;13.670;2022-09-09T02:40:37;1.05;;;0.60;;
19617;SDS011;9956;51.006;13.670;2022-09-09T02:45:44;1.35;;;0.70;;
19617;SDS011;9956;51.006;13.670;2022-09-09T02:50:56;1.15;;;0.70;;
19617;SDS011;9956;51.006;13.670;2022-09-09T02:56:13;2.17;;;0.90;;
19617;SDS011;9956;51.006;13.670;2022-09-09T03:01:36;3.58;;;0.80;;
19617;SDS011;9956;51.006;13.670;2022-09-09T03:06:40;1.77;;;0.60;;
19617;SDS011;9956;51.006;13.670;2022-09-09T03:11:50;2.10;;;0.77;;
19617;SDS011;9956;51.006;13.670;2022-09-09T03:16:53;2.40;;;0.70;;
19617;SDS011;9956;51.006;13.670;2022-09-09T03:21:54;0.85;;;0.80;;
19617;SDS011;9956;51.006;13.670;2022-09-09T03:26:55;3.03;;;0.60;;
19617;SDS011;9956;51.006;13.670;2022-09-09T03:31:56;3.17;;;0.80;;
19617;SDS011;9956;51.006;13.670;2022-09-09T03:36:58;1.08;;;0.57;;
19617;SDS011;9956;51.006;13.670;2022-09-09T03:42:00;2.45;;;0.73;;
19617;SDS011;9956;51.006;13.670;2022-09-09T03:47:04;2.95;;;0.98;;
19617;SDS011;9956;51.006;13.670;2022-09-09T03:52:05;2.38;;;0.68;;
19617;SDS011;9956;51.006;13.670;2022-09-09T03:57:05;0.95;;;0.70;;
19617;SDS011;9956;51.006;13.670;2022-09-09T04:02:06;2.28;;;0.65;;
19617;SDS011;9956;51.006;13.670;2022-09-09T04:07:06;3.97;;;0.90;;
19617;SDS011;9956;51.006;13.670;2022-09-09T04:12:07;1.92;;;0.70;;
19617;SDS011;9956;51.006;13.670;2022-09-09T04:17:09;6.18;;;1.13;;
19617;SDS011;9956;51.006;13.670;2022-09-09T04:22:10;2.15;;;0.88;;
19617;SDS011;9956;51.006;13.670;2022-09-09T04:27:11;1.40;;;0.90;;
19617;SDS011;9956;51.006;13.670;2022-09-09T04:32:12;2.30;;;0.82;;
19617;SDS011;9956;51.006;13.670;2022-09-09T04:37:14;1.58;;;0.75;;
19617;SDS011;9956;51.006;13.670;2022-09-09T04:42:14;2.10;;;0.82;;
19617;SDS011;9956;51.006;13.670;2022-09-09T04:47:17;5.20;;;1.27;;
19617;SDS011;9956;51.006;13.670;2022-09-09T04:52:18;1.58;;;0.82;;
19617;SDS011;9956;51.006;13.670;2022-09-09T04:57:18;7.53;;;5.53;;
19617;SDS011;9956;51.006;13.670;2022-09-09T05:02:21;7.88;;;4.72;;
19617;SDS011;9956;51.006;13.670;2022-09-09T05:07:22;4.72;;;3.20;;
19617;SDS011;9956;51.006;13.670;2022-09-09T05:12:22;4.05;;;2.95;;
19617;SDS011;9956;51.006;13.670;2022-09-09T05:17:26;8.50;;;7.45;;
19617;SDS011;9956;51.006;13.670;2022-09-09T05:22:26;8.10;;;5.78;;
19617;SDS011;9956;51.006;13.670;2022-09-09T05:27:27;3.70;;;3.08;;
19617;SDS011;9956;51.006;13.670;2022-09-09T05:32:29;9.18;;;6.18;;
19617;SDS011;9956;51.006;13.670;2022-09-09T05:37:33;6.45;;;4.60;;
19617;SDS011;9956;51.006;13.670;2022-09-09T05:42:35;6.70;;;3.13;;
19617;SDS011;9956;51.006;13.670;2022-09-09T05:47:36;6.05;;;2.97;;
19617;SDS011;9956;51.006;13.670;2022-09-09T05:52:38;3.63;;;2.90;;
19617;SDS011;9956;51.006;13.670;2022-09-09T05:57:40;4.25;;;2.53;;
19617;SDS011;9956;51.006;13.670;2022-09-09T06:02:43;1.95;;;1.40;;
19617;SDS011;9956;51.006;13.670;2022-09-09T06:07:47;1.70;;;0.80;;
19617;SDS011;9956;51.006;13.670;2022-09-09T06:12:47;2.28;;;0.85;;
19617;SDS011;9956;51.006;13.670;2022-09-09T06:17:53;3.00;;;1.13;;
19617;SDS011;9956;51.006;13.670;2022-09-09T06:22:54;1.42;;;0.80;;
19617;SDS011;9956;51.006;13.670;2022-09-09T06:27:55;1.17;;;0.80;;
19617;SDS011;9956;51.006;13.670;2022-09-09T06:32:56;1.15;;;0.80;;
19617;SDS011;9956;51.006;13.670;2022-09-09T06:37:58;4.35;;;1.20;;
19617;SDS011;9956;51.006;13.670;2022-09-09T06:42:59;1.60;;;0.85;;
19617;SDS011;9956;51.006;13.670;2022-09-09T06:48:13;2.47;;;0.80;;
19617;SDS011;9956;51.006;13.670;2022-09-09T06:53:15;2.72;;;0.70;;
19617;SDS011;9956;51.006;13.670;2022-09-09T06:58:17;3.05;;;0.85;;
19617;SDS011;9956;51.006;13.670;2022-09-09T07:03:18;2.25;;;0.50;;
19617;SDS011;9956;51.006;13.670;2022-09-09T07:08:18;1.83;;;0.70;;
19617;SDS011;9956;51.006;13.670;2022-09-09T07:13:23;3.35;;;0.73;;
19617;SDS011;9956;51.006;13.670;2022-09-09T07:18:26;3.20;;;0.70;;
19617;SDS011;9956;51.006;13.670;2022-09-09T07:23:27;1.88;;;0.60;;
19617;SDS011;9956;51.006;13.670;2022-09-09T07:28:28;2.00;;;0.82;;
19617;SDS011;9956;51.006;13.670;2022-09-09T07:33:32;3.83;;;0.40;;
19617;SDS011;9956;51.006;13.670;2022-09-09T07:38:38;3.65;;;0.57;;
19617;SDS011;9956;51.006;13.670;2022-09-09T07:43:40;1.55;;;0.73;;
19617;SDS011;9956;51.006;13.670;2022-09-09T07:48:45;4.00;;;0.93;;
19617;SDS011;9956;51.006;13.670;2022-09-09T07:53:47;4.75;;;0.55;;
19617;SDS011;9956;51.006;13.670;2022-09-09T07:58:49;2.17;;;0.50;;
19617;SDS011;9956;51.006;13.670;2022-09-09T08:04:01;3.08;;;0.75;;
19617;SDS011;9956;51.006;13.670;2022-09-09T08:09:08;3.20;;;0.68;;
19617;SDS011;9956;51.006;13.670;2022-09-09T08:14:10;3.03;;;0.88;;
19617;SDS011;9956;51.006;13.670;2022-09-09T08:19:11;3.72;;;0.90;;
19617;SDS011;9956;51.006;13.670;2022-09-09T08:24:13;1.60;;;0.80;;
19617;SDS011;9956;51.006;13.670;2022-09-09T08:29:21;2.35;;;0.80;;
19617;SDS011;9956;51.006;13.670;2022-09-09T08:34:22;3.33;;;0.68;;
19617;SDS011;9956;51.006;13.670;2022-09-09T08:39:24;1.98;;;0.80;;
19617;SDS011;9956;51.006;13.670;2022-09-09T08:54:43;4.78;;;0.98;;
19617;SDS011;9956;51.006;13.670;2022-09-09T08:59:43;3.47;;;0.90;;
19617;SDS011;9956;51.006;13.670;2022-09-09T09:15:38;5.03;;;1.00;;
19617;SDS011;9956;51.006;13.670;2022-09-09T09:21:02;2.05;;;0.82;;
19617;SDS011;9956;51.006;13.670;2022-09-09T09:26:12;2.85;;;0.60;;
19617;SDS011;9956;51.006;13.670;2022-09-09T09:31:13;3.58;;;0.75;;
19617;SDS011;9956;51.006;13.670;2022-09-09T09:36:17;4.15;;;0.95;;
19617;SDS011;9956;51.006;13.670;2022-09-09T09:41:38;3.17;;;0.80;;
19617;SDS011;9956;51.006;13.670;2022-09-09T09:46:42;3.15;;;0.85;;
19617;SDS011;9956;51.006;13.670;2022-09-09T09:51:46;2.80;;;0.80;;
19617;SDS011;9956;51.006;13.670;2022-09-09T09:56:47;2.10;;;0.88;;
19617;SDS011;9956;51.006;13.670;2022-09-09T10:01:48;3.38;;;0.82;;
19617;SDS011;9956;51.006;13.670;2022-09-09T10:06:49;2.15;;;0.82;;
19617;SDS011;9956;51.006;13.670;2022-09-09T10:22:27;2.75;;;0.82;;
19617;SDS011;9956;51.006;13.670;2022-09-09T10:32:47;2.40;;;0.82;;
19617;SDS011;9956;51.006;13.670;2022-09-09T10:38:01;2.33;;;0.90;;
19617;SDS011;9956;51.006;13.670;2022-09-09T10:59:18;2.28;;;0.95;;
19617;SDS011;9956;51.006;13.670;2022-09-09T11:04:27;2.22;;;1.10;;
19617;SDS011;9956;51.006;13.670;2022-09-09T11:09:33;2.58;;;1.00;;
19617;SDS011;9956;51.006;13.670;2022-09-09T11:14:41;2.60;;;0.70;;
19617;SDS011;9956;51.006;13.670;2022-09-09T11:19:43;3.17;;;0.88;;
19617;SDS011;9956;51.006;13.670;2022-09-09T11:24:47;2.22;;;0.60;;
19617;SDS011;9956;51.006;13.670;2022-09-09T11:40:57;3.42;;;1.00;;
19617;SDS011;9956;51.006;13.670;2022-09-09T11:46:00;4.63;;;1.10;;
19617;SDS011;9956;51.006;13.670;2022-09-09T11:51:07;2.85;;;1.10;;
19617;SDS011;9956;51.006;13.670;2022-09-09T11:56:10;2.28;;;1.00;;
19617;SDS011;9956;51.006;13.670;2022-09-09T12:01:37;2.80;;;1.17;;
19617;SDS011;9956;51.006;13.670;2022-09-09T12:06:44;3.13;;;1.20;;
19617;SDS011;9956;51.006;13.670;2022-09-09T12:22:22;2.75;;;1.20;;
19617;SDS011;9956;51.006;13.670;2022-09-09T12:27:47;2.60;;;1.02;;
19617;SDS011;9956;51.006;13.670;2022-09-09T12:32:59;4.35;;;1.45;;
19617;SDS011;9956;51.006;13.670;2022-09-09T12:38:01;2.90;;;1.20;;
19617;SDS011;9956;51.006;13.670;2022-09-09T12:43:25;2.20;;;0.90;;
19617;SDS011;9956;51.006;13.670;2022-09-09T12:48:26;3.10;;;1.08;;
19617;SDS011;9956;51.006;13.670;2022-09-09T12:53:36;2.58;;;1.20;;
19617;SDS011;9956;51.006;13.670;2022-09-09T12:58:39;3.78;;;1.67;;
19617;SDS011;9956;51.006;13.670;2022-09-09T13:03:46;1.40;;;0.65;;
19617;SDS011;9956;51.006;13.670;2022-09-09T13:08:47;3.38;;;0.85;;
19617;SDS011;9956;51.006;13.670;2022-09-09T13:13:51;2.87;;;1.07;;
19617;SDS011;9956;51.006;13.670;2022-09-09T13:18:53;6.18;;;1.25;;
19617;SDS011;9956;51.006;13.670;2022-09-09T13:23:53;2.13;;;0.80;;
19617;SDS011;9956;51.006;13.670;2022-09-09T13:28:54;3.47;;;1.08;;
19617;SDS011;9956;51.006;13.670;2022-09-09T13:33:55;2.80;;;0.70;;
19617;SDS011;9956;51.006;13.670;2022-09-09T13:38:56;4.35;;;0.82;;
19617;SDS011;9956;51.006;13.670;2022-09-09T13:43:59;2.13;;;0.68;;
19617;SDS011;9956;51.006;13.670;2022-09-09T13:54:11;4.07;;;0.90;;
19617;SDS011;9956;51.006;13.670;2022-09-09T13:59:14;4.07;;;0.70;;
19617;SDS011;9956;51.006;13.670;2022-09-09T14:04:16;3.42;;;0.80;;
19617;SDS011;9956;51.006;13.670;2022-09-09T14:09:17;3.45;;;1.00;;
19617;SDS011;9956;51.006;13.670;2022-09-09T14:14:18;1.60;;;0.68;;
19617;SDS011;9956;51.006;13.670;2022-09-09T14:19:18;3.30;;;0.88;;
19617;SDS011;9956;51.006;13.670;2022-09-09T14:24:19;3.70;;;0.88;;
19617;SDS011;9956;51.006;13.670;2022-09-09T14:29:19;1.73;;;0.50;;
19617;SDS011;9956;51.006;13.670;2022-09-09T14:40:46;2.60;;;0.88;;
19617;SDS011;9956;51.006;13.670;2022-09-09T14:45:47;4.05;;;0.93;;
19617;SDS011;9956;51.006;13.670;2022-09-09T14:50:51;2.67;;;0.80;;
19617;SDS011;9956;51.006;13.670;2022-09-09T14:55:51;3.40;;;0.73;;
19617;SDS011;9956;51.006;13.670;2022-09-09T15:00:52;1.03;;;0.60;;
19617;SDS011;9956;51.006;13.670;2022-09-09T15:05:53;4.38;;;1.02;;
19617;SDS011;9956;51.006;13.670;2022-09-09T15:11:00;3.47;;;1.00;;
19617;SDS011;9956;51.006;13.670;2022-09-09T15:16:05;2.70;;;0.82;;
19617;SDS011;9956;51.006;13.670;2022-09-09T15:21:14;1.40;;;0.70;;
19617;SDS011;9956;51.006;13.670;2022-09-09T15:26:16;2.40;;;0.80;;
19617;SDS011;9956;51.006;13.670;2022-09-09T15:36:22;2.22;;;0.90;;
19617;SDS011;9956;51.006;13.670;2022-09-09T15:41:23;2.45;;;0.73;;
19617;SDS011;9956;51.006;13.670;2022-09-09T15:46:34;1.75;;;0.77;;
19617;SDS011;9956;51.006;13.670;2022-09-09T15:51:37;1.85;;;0.70;;
19617;SDS011;9956;51.006;13.670;2022-09-09T15:56:39;2.85;;;0.77;;
19617;SDS011;9956;51.006;13.670;2022-09-09T16:01:40;4.82;;;0.98;;
19617;SDS011;9956;51.006;13.670;2022-09-09T16:06:42;2.75;;;0.70;;
19617;SDS011;9956;51.006;13.670;2022-09-09T16:11:42;2.35;;;1.20;;
19617;SDS011;9956;51.006;13.670;2022-09-09T16:16:42;2.67;;;1.20;;
19617;SDS011;9956;51.006;13.670;2022-09-09T16:21:44;2.63;;;0.98;;
19617;SDS011;9956;51.006;13.670;2022-09-09T16:26:47;2.28;;;0.77;;
19617;SDS011;9956;51.006;13.670;2022-09-09T16:31:49;2.88;;;0.73;;
19617;SDS011;9956;51.006;13.670;2022-09-09T16:36:50;2.08;;;0.80;;
19617;SDS011;9956;51.006;13.670;2022-09-09T16:41:51;3.22;;;1.00;;
19617;SDS011;9956;51.006;13.670;2022-09-09T16:46:52;2.60;;;1.23;;
19617;SDS011;9956;51.006;13.670;2022-09-09T16:51:53;2.42;;;1.00;;
19617;SDS011;9956;51.006;13.670;2022-09-09T16:56:53;1.50;;;1.00;;
19617;SDS011;9956;51.006;13.670;2022-09-09T17:01:53;4.13;;;1.17;;
19617;SDS011;9956;51.006;13.670;2022-09-09T17:06:54;2.65;;;1.33;;
19617;SDS011;9956;51.006;13.670;2022-09-09T17:11:56;2.80;;;1.00;;
19617;SDS011;9956;51.006;13.670;2022-09-09T17:16:56;1.65;;;0.90;;
19617;SDS011;9956;51.006;13.670;2022-09-09T17:21:57;4.22;;;1.30;;
19617;SDS011;9956;51.006;13.670;2022-09-09T17:26:59;2.10;;;1.00;;
19617;SDS011;9956;51.006;13.670;2022-09-09T17:32:00;2.70;;;1.00;;
19617;SDS011;9956;51.006;13.670;2022-09-09T17:37:00;3.15;;;1.40;;
19617;SDS011;9956;51.006;13.670;2022-09-09T17:42:01;2.75;;;1.20;;
19617;SDS011;9956;51.006;13.670;2022-09-09T17:47:01;1.40;;;0.85;;
19617;SDS011;9956;51.006;13.670;2022-09-09T17:52:03;1.67;;;0.90;;
19617;SDS011;9956;51.006;13.670;2022-09-09T17:57:04;4.25;;;1.00;;
19617;SDS011;9956;51.006;13.670;2022-09-09T18:02:05;1.45;;;0.90;;
19617;SDS011;9956;51.006;13.670;2022-09-09T18:07:05;0.93;;;0.90;;
19617;SDS011;9956;51.006;13.670;2022-09-09T18:12:05;2.38;;;0.80;;
19617;SDS011;9956;51.006;13.670;2022-09-09T18:17:06;1.63;;;0.73;;
19617;SDS011;9956;51.006;13.670;2022-09-09T18:22:08;2.60;;;0.80;;
19617;SDS011;9956;51.006;13.670;2022-09-09T18:27:08;1.92;;;0.68;;
19617;SDS011;9956;51.006;13.670;2022-09-09T18:32:11;2.17;;;0.93;;
19617;SDS011;9956;51.006;13.670;2022-09-09T18:37:14;1.20;;;0.70;;
19617;SDS011;9956;51.006;13.670;2022-09-09T18:42:14;1.63;;;1.17;;
19617;SDS011;9956;51.006;13.670;2022-09-09T18:47:14;1.80;;;0.98;;
19617;SDS011;9956;51.006;13.670;2022-09-09T18:52:16;1.25;;;0.50;;
19617;SDS011;9956;51.006;13.670;2022-09-09T18:57:17;1.40;;;0.80;;
19617;SDS011;9956;51.006;13.670;2022-09-09T19:02:20;1.58;;;0.93;;
19617;SDS011;9956;51.006;13.670;2022-09-09T19:07:21;1.42;;;0.85;;
19617;SDS011;9956;51.006;13.670;2022-09-09T19:12:21;3.15;;;1.00;;
19617;SDS011;9956;51.006;13.670;2022-09-09T19:17:22;3.45;;;0.80;;
19617;SDS011;9956;51.006;13.670;2022-09-09T19:22:22;2.33;;;1.10;;
19617;SDS011;9956;51.006;13.670;2022-09-09T19:27:23;2.72;;;0.82;;
19617;SDS011;9956;51.006;13.670;2022-09-09T19:32:24;1.58;;;0.93;;
19617;SDS011;9956;51.006;13.670;2022-09-09T19:37:24;3.30;;;0.90;;
19617;SDS011;9956;51.006;13.670;2022-09-09T19:42:25;4.18;;;1.10;;
19617;SDS011;9956;51.006;13.670;2022-09-09T19:47:25;3.33;;;0.98;;
19617;SDS011;9956;51.006;13.670;2022-09-09T19:52:25;5.35;;;1.33;;
19617;SDS011;9956;51.006;13.670;2022-09-09T19:57:26;3.15;;;2.20;;
19617;SDS011;9956;51.006;13.670;2022-09-09T20:02:29;5.00;;;2.50;;
19617;SDS011;9956;51.006;13.670;2022-09-09T20:07:30;6.53;;;4.30;;
19617;SDS011;9956;51.006;13.670;2022-09-09T20:12:32;7.00;;;3.70;;
19617;SDS011;9956;51.006;13.670;2022-09-09T20:17:32;6.22;;;4.72;;
19617;SDS011;9956;51.006;13.670;2022-09-09T20:22:33;5.15;;;4.07;;
19617;SDS011;9956;51.006;13.670;2022-09-09T20:27:33;6.72;;;5.47;;
19617;SDS011;9956;51.006;13.670;2022-09-09T20:32:33;5.82;;;5.22;;
19617;SDS011;9956;51.006;13.670;2022-09-09T20:37:35;6.03;;;5.32;;
19617;SDS011;9956;51.006;13.670;2022-09-09T20:42:35;6.78;;;5.03;;
19617;SDS011;9956;51.006;13.670;2022-09-09T20:47:36;6.18;;;5.05;;
19617;SDS011;9956;51.006;13.670;2022-09-09T20:52:37;5.82;;;2.67;;
19617;SDS011;9956;51.006;13.670;2022-09-09T20:57:37;6.07;;;2.92;;
19617;SDS011;9956;51.006;13.670;2022-09-09T21:02:38;3.50;;;2.63;;
19617;SDS011;9956;51.006;13.670;2022-09-09T21:07:38;4.80;;;2.30;;
19617;SDS011;9956;51.006;13.670;2022-09-09T21:12:38;3.97;;;2.47;;
19617;SDS011;9956;51.006;13.670;2022-09-09T21:17:39;5.10;;;2.10;;
19617;SDS011;9956;51.006;13.670;2022-09-09T21:22:39;3.03;;;1.75;;
19617;SDS011;9956;51.006;13.670;2022-09-09T21:27:40;2.28;;;1.30;;
19617;SDS011;9956;51.006;13.670;2022-09-09T21:32:40;5.18;;;1.20;;
19617;SDS011;9956;51.006;13.670;2022-09-09T21:37:41;4.70;;;2.00;;
19617;SDS011;9956;51.006;13.670;2022-09-09T21:42:41;7.15;;;4.00;;
19617;SDS011;9956;51.006;13.670;2022-09-09T21:47:43;5.03;;;4.50;;
19617;SDS011;9956;51.006;13.670;2022-09-09T21:52:45;8.00;;;3.63;;
19617;SDS011;9956;51.006;13.670;2022-09-09T21:57:46;5.03;;;2.70;;
19617;SDS011;9956;51.006;13.670;2022-09-09T22:02:46;5.22;;;1.85;;
19617;SDS011;9956;51.006;13.670;2022-09-09T22:07:47;2.00;;;1.05;;
19617;SDS011;9956;51.006;13.670;2022-09-09T22:12:47;2.42;;;1.50;;
19617;SDS011;9956;51.006;13.670;2022-09-09T22:17:48;3.00;;;1.55;;
19617;SDS011;9956;51.006;13.670;2022-09-09T22:22:49;4.40;;;1.30;;
19617;SDS011;9956;51.006;13.670;2022-09-09T22:27:49;3.80;;;1.17;;
19617;SDS011;9956;51.006;13.670;2022-09-09T22:32:49;2.08;;;0.77;;
19617;SDS011;9956;51.006;13.670;2022-09-09T22:37:50;1.35;;;1.00;;
19617;SDS011;9956;51.006;13.670;2022-09-09T22:42:51;2.67;;;0.95;;
19617;SDS011;9956;51.006;13.670;2022-09-09T22:47:52;1.95;;;0.80;;
19617;SDS011;9956;51.006;13.670;2022-09-09T22:52:52;1.25;;;0.95;;
19617;SDS011;9956;51.006;13.670;2022-09-09T22:57:53;2.88;;;0.80;;
19617;SDS011;9956;51.006;13.670;2022-09-09T23:02:55;2.22;;;1.25;;
19617;SDS011;9956;51.006;13.670;2022-09-09T23:07:56;3.25;;;0.85;;
19617;SDS011;9956;51.006;13.670;2022-09-09T23:12:57;4.53;;;1.30;;
19617;SDS011;9956;51.006;13.670;2022-09-09T23:17:57;2.63;;;1.02;;
19617;SDS011;9956;51.006;13.670;2022-09-09T23:22:58;4.72;;;0.90;;
19617;SDS011;9956;51.006;13.670;2022-09-09T23:28:00;1.45;;;0.70;;
19617;SDS011;9956;51.006;13.670;2022-09-09T23:33:01;0.60;;;0.43;;
19617;SDS011;9956;51.006;13.670;2022-09-09T23:38:01;2.35;;;0.70;;
19617;SDS011;9956;51.006;13.670;2022-09-09T23:43:01;1.83;;;0.52;;
19617;SDS011;9956;51.006;13.670;2022-09-09T23:48:02;0.80;;;0.50;;
19617;SDS011;9956;51.006;13.670;2022-09-09T23:53:03;1.42;;;0.50;;
19617;SDS011;9956;51.006;13.670;2022-09-09T23:58:04;3.72;;;0.50;;
